Time;durP1;ratioP1;P1;durP2;ratioP2;P2;SDS_P1;SDS_P2;PMS_P1;PMS_P2;Temp;Humidity;BMP_temperature;BMP_pressure;BME280_temperature;BME280_humidity;BME280_pressure;Samples;Min_cycle;Max_cycle;Signal;HPM_P1;HPM_P2
2021/12/15 00:00:11;;;;;;;21.90;12.60;;;8.60;99.90;;;;;;5011561;28;20171;-77
2021/12/15 00:02:37;;;;;;;17.47;11.20;;;8.60;99.90;;;;;;5027675;28;20178;-78
2021/12/15 00:05:05;;;;;;;18.30;12.00;;;8.70;99.90;;;;;;5013208;28;20185;-78
2021/12/15 00:07:33;;;;;;;22.03;12.50;;;8.70;99.90;;;;;;5010965;28;20181;-77
2021/12/15 00:09:58;;;;;;;24.73;13.83;;;8.70;99.90;;;;;;5011423;28;20558;-78
2021/12/15 00:12:25;;;;;;;19.63;11.50;;;8.70;99.90;;;;;;4995013;28;20178;-78
2021/12/15 00:14:53;;;;;;;22.00;12.37;;;8.80;99.90;;;;;;5012516;28;20210;-78
2021/12/15 00:17:21;;;;;;;23.63;12.37;;;8.80;99.90;;;;;;5011238;28;20225;-76
2021/12/15 00:19:47;;;;;;;20.57;11.57;;;8.80;99.90;;;;;;5011152;28;20221;-77
2021/12/15 00:22:13;;;;;;;20.60;11.90;;;8.70;99.90;;;;;;4994415;28;20182;-79
2021/12/15 00:24:40;;;;;;;22.33;12.70;;;8.70;99.90;;;;;;5027636;28;20229;-77
2021/12/15 00:27:07;;;;;;;20.20;11.23;;;8.60;99.90;;;;;;4994296;28;20178;-78
2021/12/15 00:29:32;;;;;;;20.83;11.63;;;8.70;99.90;;;;;;5027495;28;20244;-78
2021/12/15 00:32:03;;;;;;;19.77;11.00;;;8.70;99.90;;;;;;5011472;28;20606;-77
2021/12/15 00:34:38;;;;;;;20.67;11.53;;;8.70;99.90;;;;;;5027656;28;20170;-80
2021/12/15 00:37:05;;;;;;;21.47;12.00;;;8.60;99.90;;;;;;5012203;28;20661;-78
2021/12/15 00:39:31;;;;;;;21.17;11.33;;;8.70;99.90;;;;;;4994524;28;20303;-75
2021/12/15 00:41:59;;;;;;;21.57;11.97;;;8.50;99.90;;;;;;5011963;28;20257;-77
2021/12/15 00:44:25;;;;;;;22.27;11.13;;;8.50;99.90;;;;;;5010677;28;20258;-77
2021/12/15 00:46:52;;;;;;;19.00;11.80;;;8.60;99.90;;;;;;4994449;28;20186;-76
2021/12/15 00:49:20;;;;;;;17.93;11.23;;;8.70;99.90;;;;;;5026999;28;20397;-77
2021/12/15 00:51:46;;;;;;;22.57;12.10;;;8.70;99.90;;;;;;5010349;28;20175;-78
2021/12/15 00:54:14;;;;;;;20.50;12.63;;;8.70;99.90;;;;;;4994197;28;20174;-78
2021/12/15 00:56:40;;;;;;;17.50;11.37;;;8.70;99.90;;;;;;5027334;28;20170;-78
2021/12/15 00:59:09;;;;;;;20.80;12.33;;;8.70;99.90;;;;;;5010567;28;20537;-77
2021/12/15 01:01:38;;;;;;;21.83;11.83;;;8.60;99.90;;;;;;5012024;28;20281;-77
2021/12/15 01:04:06;;;;;;;22.30;12.50;;;8.60;99.90;;;;;;4994632;28;20594;-77
2021/12/15 01:06:33;;;;;;;17.30;10.43;;;8.60;99.90;;;;;;5010476;28;20206;-78
2021/12/15 01:09:04;;;;;;;18.10;10.60;;;8.90;99.90;;;;;;5012362;28;20175;-77
2021/12/15 01:19:59;;;;;;;20.93;12.70;;;8.60;99.90;;;;;;5007994;28;20193;-79
2021/12/15 01:22:46;;;;;;;24.13;11.70;;;8.60;99.90;;;;;;5010934;28;20194;-76
2021/12/15 01:25:22;;;;;;;22.83;11.73;;;8.70;99.90;;;;;;5009961;28;20177;-76
2021/12/15 01:27:50;;;;;;;21.33;10.67;;;8.70;99.90;;;;;;5011438;28;20671;-77
2021/12/15 01:30:20;;;;;;;19.97;10.93;;;8.70;99.90;;;;;;5010082;28;20182;-79
2021/12/15 01:32:46;;;;;;;18.80;10.87;;;8.70;99.90;;;;;;5012051;28;20240;-77
2021/12/15 01:35:12;;;;;;;20.60;11.13;;;8.70;99.90;;;;;;5010726;28;20253;-77
2021/12/15 01:37:39;;;;;;;18.63;10.90;;;8.70;99.90;;;;;;5007752;28;20553;-79
2021/12/15 01:40:09;;;;;;;19.57;11.80;;;8.80;99.90;;;;;;5009422;28;20171;-78
2021/12/15 01:42:35;;;;;;;19.03;11.60;;;8.80;99.90;;;;;;5009762;28;20183;-77
2021/12/15 01:47:59;;;;;;;18.13;10.97;;;8.80;99.90;;;;;;5009612;28;20529;-78
2021/12/15 01:50:25;;;;;;;22.73;11.70;;;8.80;99.90;;;;;;4993167;28;20186;-77
2021/12/15 01:52:52;;;;;;;18.43;11.23;;;8.70;99.90;;;;;;5009931;28;20193;-77
2021/12/15 01:55:19;;;;;;;20.03;11.77;;;8.60;99.90;;;;;;5009342;28;20194;-77
2021/12/15 01:57:46;;;;;;;20.50;11.70;;;8.70;99.90;;;;;;5010799;28;20209;-77
2021/12/15 02:00:21;;;;;;;21.63;10.83;;;8.70;99.90;;;;;;5009512;28;20175;-78
2021/12/15 02:02:50;;;;;;;18.70;10.73;;;8.70;99.90;;;;;;5009759;28;20201;-79
2021/12/15 02:05:16;;;;;;;20.40;10.63;;;8.70;99.90;;;;;;5009417;28;20175;-79
2021/12/15 02:07:44;;;;;;;17.60;10.50;;;8.80;99.90;;;;;;4993445;28;20179;-78
2021/12/15 02:10:11;;;;;;;17.97;10.67;;;8.60;99.90;;;;;;4993036;28;20193;-78
2021/12/15 02:12:41;;;;;;;17.07;9.97;;;8.50;99.90;;;;;;5010913;28;20189;-77
2021/12/15 02:15:35;;;;;;;17.00;9.23;;;8.40;99.90;;;;;;5010703;28;20214;-78
2021/12/15 02:18:03;;;;;;;19.60;10.37;;;8.30;99.90;;;;;;4997343;28;20591;-79
2021/12/15 02:20:35;;;;;;;19.87;9.63;;;8.50;99.90;;;;;;5009835;28;20197;-77
2021/12/15 02:23:02;;;;;;;21.63;10.87;;;8.50;99.90;;;;;;5009455;28;20634;-76
2021/12/15 02:25:28;;;;;;;15.03;10.10;;;8.70;99.90;;;;;;5003720;28;20241;-77
2021/12/15 02:27:54;;;;;;;17.40;10.17;;;8.80;99.90;;;;;;4984862;28;20191;-76
2021/12/15 02:38:24;;;;;;;17.63;10.37;;;8.80;99.90;;;;;;5014406;28;20213;-78
2021/12/15 02:40:51;;;;;;;23.80;11.90;;;8.60;99.90;;;;;;5013204;28;20177;-78
2021/12/15 02:43:16;;;;;;;16.03;10.13;;;8.70;99.90;;;;;;5012835;28;20175;-79
2021/12/15 02:45:42;;;;;;;18.73;11.13;;;8.70;99.90;;;;;;5012832;28;20181;-78
2021/12/15 02:48:08;;;;;;;17.00;10.27;;;8.70;99.90;;;;;;4996560;28;20607;-77
2021/12/15 02:50:36;;;;;;;17.77;10.70;;;8.70;99.90;;;;;;5014162;28;20236;-77
2021/12/15 02:53:04;;;;;;;19.53;11.13;;;8.80;99.90;;;;;;4997227;28;20185;-79
2021/12/15 02:55:30;;;;;;;20.97;11.63;;;8.80;99.90;;;;;;4998321;28;20182;-79
2021/12/15 02:57:57;;;;;;;19.53;11.17;;;8.70;99.90;;;;;;5013400;28;20281;-79
2021/12/15 03:00:27;;;;;;;20.50;11.77;;;8.70;99.90;;;;;;4997702;28;20183;-77
2021/12/15 03:03:40;;;;;;;17.70;10.93;;;8.50;99.90;;;;;;5025160;28;20180;-78
2021/12/15 03:06:22;;;;;;;19.13;10.90;;;8.60;99.90;;;;;;5012931;28;20727;-77
2021/12/15 03:09:08;;;;;;;20.20;11.33;;;8.70;99.90;;;;;;5012691;28;20194;-78
2021/12/15 03:17:03;;;;;;;21.00;11.90;;;8.80;99.90;;;;;;5010085;28;20202;-77
2021/12/15 03:19:29;;;;;;;22.37;11.70;;;8.80;99.90;;;;;;4989678;28;20186;-76
2021/12/15 03:21:54;;;;;;;19.30;11.63;;;8.80;99.90;;;;;;4996204;28;20233;-77
2021/12/15 03:24:24;;;;;;;19.10;10.67;;;8.70;99.90;;;;;;5011727;28;20183;-78
2021/12/15 03:27:02;;;;;;;17.13;10.13;;;8.70;99.90;;;;;;5021900;28;20170;-78
2021/12/15 03:37:53;;;;;;;21.83;12.60;;;8.90;99.90;;;;;;4995520;28;20206;-77
2021/12/15 03:40:26;;;;;;;24.63;11.77;;;8.80;99.90;;;;;;4996787;28;20543;-78
2021/12/15 03:42:58;;;;;;;17.90;10.87;;;8.70;99.90;;;;;;5031096;28;20269;-77
2021/12/15 03:45:33;;;;;;;25.30;11.90;;;8.40;99.90;;;;;;5021415;28;20179;-76
2021/12/15 03:48:04;;;;;;;21.27;11.97;;;8.60;99.90;;;;;;5013003;28;20193;-77
2021/12/15 03:50:30;;;;;;;19.33;12.27;;;8.70;99.90;;;;;;5011555;28;20273;-74
2021/12/15 03:52:57;;;;;;;22.20;12.00;;;8.70;99.90;;;;;;5011356;28;20178;-76
2021/12/15 03:55:26;;;;;;;19.63;12.20;;;8.80;99.90;;;;;;4995316;28;20178;-79
2021/12/15 03:57:53;;;;;;;19.03;11.40;;;8.70;99.90;;;;;;5027914;28;20230;-78
2021/12/15 04:00:19;;;;;;;18.17;11.37;;;8.70;99.90;;;;;;4979393;28;20240;-79
2021/12/15 04:02:46;;;;;;;18.60;11.87;;;8.80;99.90;;;;;;5027912;28;20170;-76
2021/12/15 04:05:15;;;;;;;20.50;11.43;;;8.90;99.90;;;;;;4978687;28;20182;-77
2021/12/15 04:07:42;;;;;;;19.90;11.10;;;8.90;99.90;;;;;;5011559;28;20240;-78
2021/12/15 04:10:13;;;;;;;20.10;11.63;;;8.90;99.90;;;;;;5007818;28;20197;-77
2021/12/15 04:12:39;;;;;;;20.53;12.00;;;8.90;99.90;;;;;;4991713;28;20183;-78
2021/12/15 04:15:30;;;;;;;20.23;11.37;;;8.70;99.90;;;;;;5007826;28;20273;-78
2021/12/15 04:17:59;;;;;;;19.53;11.27;;;8.70;99.90;;;;;;4991056;28;20289;-78
2021/12/15 04:20:28;;;;;;;15.60;10.17;;;8.80;99.90;;;;;;5008622;28;20182;-77
2021/12/15 04:22:54;;;;;;;20.43;10.93;;;8.80;99.90;;;;;;5011152;28;20179;-77
2021/12/15 04:25:25;;;;;;;18.10;10.20;;;8.80;99.90;;;;;;4994405;28;20182;-79
2021/12/15 04:28:01;;;;;;;18.77;10.83;;;8.90;99.90;;;;;;5012464;28;20550;-78
2021/12/15 04:30:29;;;;;;;18.97;11.30;;;8.90;99.90;;;;;;5010619;28;20233;-79
2021/12/15 04:33:00;;;;;;;16.30;9.83;;;8.90;99.90;;;;;;5027444;28;20546;-76
2021/12/15 04:35:28;;;;;;;22.63;10.67;;;9.00;99.90;;;;;;5010695;28;20183;-76
2021/12/15 04:37:54;;;;;;;15.83;10.23;;;8.80;99.90;;;;;;5010817;28;20265;-78
2021/12/15 04:40:22;;;;;;;16.33;10.13;;;8.80;99.90;;;;;;4994211;28;20178;-77
2021/12/15 04:42:49;;;;;;;14.93;8.47;;;8.80;99.90;;;;;;4994182;28;20187;-76
2021/12/15 04:45:20;;;;;;;15.73;8.60;;;8.90;99.90;;;;;;5010623;28;20171;-78
2021/12/15 04:47:52;;;;;;;13.27;8.43;;;8.80;99.90;;;;;;5010830;28;20560;-78
2021/12/15 04:50:20;;;;;;;14.60;8.07;;;8.80;99.90;;;;;;4994908;28;20186;-77
2021/12/15 04:52:46;;;;;;;15.93;8.30;;;8.90;99.90;;;;;;4994379;28;20178;-77
2021/12/15 04:55:12;;;;;;;10.80;6.53;;;8.60;99.90;;;;;;5010271;28;20205;-75
2021/12/15 04:57:38;;;;;;;12.63;8.37;;;8.70;99.90;;;;;;4993926;28;20595;-77
2021/12/15 05:00:13;;;;;;;12.70;7.57;;;8.60;99.90;;;;;;5011433;28;20179;-79
2021/12/15 05:02:39;;;;;;;11.90;6.93;;;8.10;99.90;;;;;;5010360;28;20564;-79
2021/12/15 05:05:06;;;;;;;12.30;8.43;;;8.30;99.90;;;;;;4994185;28;20486;-79
2021/12/15 05:07:32;;;;;;;10.63;7.00;;;8.40;99.90;;;;;;5010460;28;20265;-77
2021/12/15 05:09:59;;;;;;;11.30;6.77;;;8.60;99.90;;;;;;4977025;28;20273;-76
2021/12/15 05:12:26;;;;;;;11.60;7.33;;;8.80;99.90;;;;;;5010297;28;20174;-77
2021/12/15 05:14:52;;;;;;;11.53;7.03;;;8.80;99.90;;;;;;5009782;28;20271;-79
2021/12/15 05:17:18;;;;;;;9.07;5.83;;;8.80;99.90;;;;;;5026423;28;20785;-77
2021/12/15 05:19:46;;;;;;;10.77;6.60;;;8.80;99.90;;;;;;5026309;28;20556;-76
2021/12/15 05:22:14;;;;;;;9.33;5.77;;;8.80;99.90;;;;;;5010499;28;20229;-78
2021/12/15 05:24:42;;;;;;;10.87;6.63;;;8.80;99.90;;;;;;5010834;28;20178;-76
2021/12/15 05:27:14;;;;;;;8.97;5.73;;;8.90;99.90;;;;;;5010060;28;20193;-78
2021/12/15 05:29:42;;;;;;;10.10;5.97;;;8.90;99.90;;;;;;5009886;28;20178;-77
2021/12/15 05:32:09;;;;;;;8.77;5.93;;;8.90;99.90;;;;;;4993474;28;20197;-78
2021/12/15 05:34:38;;;;;;;9.07;5.77;;;8.90;99.90;;;;;;5009724;28;20265;-76
2021/12/15 05:37:04;;;;;;;7.40;4.83;;;8.80;99.90;;;;;;5009681;28;20193;-76
2021/12/15 05:39:31;;;;;;;9.20;6.23;;;8.90;99.90;;;;;;5009908;28;20672;-76
2021/12/15 05:41:57;;;;;;;9.83;5.73;;;8.90;99.90;;;;;;5009450;28;20685;-77
2021/12/15 05:44:25;;;;;;;9.83;6.03;;;9.00;99.90;;;;;;5010849;28;20646;-78
2021/12/15 05:46:53;;;;;;;7.57;4.90;;;9.00;99.90;;;;;;4993215;28;20181;-76
2021/12/15 05:49:19;;;;;;;9.10;5.50;;;9.10;99.90;;;;;;4977288;28;20198;-76
2021/12/15 05:51:45;;;;;;;8.27;5.77;;;9.00;99.90;;;;;;5009465;28;20205;-76
2021/12/15 05:54:12;;;;;;;7.70;4.90;;;8.90;99.90;;;;;;4977064;28;20229;-76
2021/12/15 05:56:38;;;;;;;8.23;5.60;;;8.90;99.90;;;;;;4992964;28;20178;-78
2021/12/15 05:59:05;;;;;;;8.27;5.67;;;8.90;99.90;;;;;;5025844;28;20217;-76
2021/12/15 06:01:31;;;;;;;7.77;5.40;;;9.00;99.90;;;;;;5010608;28;20227;-78
2021/12/15 06:03:56;;;;;;;8.77;6.03;;;8.90;99.90;;;;;;4992925;28;20182;-77
2021/12/15 06:06:23;;;;;;;9.20;6.23;;;8.90;99.90;;;;;;5013726;28;20893;-77
2021/12/15 06:08:49;;;;;;;7.37;5.43;;;9.00;99.90;;;;;;5017165;28;20178;-77
2021/12/15 06:11:16;;;;;;;10.60;5.90;;;9.00;99.90;;;;;;5016872;28;20293;-76
2021/12/15 06:13:47;;;;;;;10.13;6.00;;;9.00;99.90;;;;;;4999321;28;20182;-76
2021/12/15 06:16:14;;;;;;;7.53;5.50;;;9.00;99.90;;;;;;4999919;28;20201;-77
2021/12/15 06:18:39;;;;;;;7.60;5.17;;;9.00;99.90;;;;;;5032132;28;20233;-78
2021/12/15 06:21:05;;;;;;;7.87;5.30;;;8.70;99.90;;;;;;5015582;28;20210;-76
2021/12/15 06:23:31;;;;;;;6.70;4.90;;;8.80;99.90;;;;;;5015658;28;20182;-77
2021/12/15 06:25:59;;;;;;;7.80;5.30;;;8.80;99.90;;;;;;5017140;28;20244;-78
2021/12/15 06:28:28;;;;;;;8.03;5.00;;;8.90;99.90;;;;;;5006699;28;20191;-77
2021/12/15 06:30:55;;;;;;;7.87;5.50;;;8.90;99.90;;;;;;5006489;28;20186;-78
2021/12/15 06:33:22;;;;;;;7.80;5.40;;;9.00;99.90;;;;;;5014011;28;20273;-77
2021/12/15 06:35:58;;;;;;;9.97;6.00;;;8.90;99.90;;;;;;5012333;28;20198;-77
2021/12/15 06:38:30;;;;;;;8.10;5.50;;;8.90;99.90;;;;;;5005054;28;20220;-77
2021/12/15 06:40:57;;;;;;;10.23;6.63;;;8.90;99.90;;;;;;4986869;28;20665;-77
2021/12/15 06:43:24;;;;;;;10.37;6.80;;;8.70;99.90;;;;;;5010570;28;20521;-77
2021/12/15 06:46:36;;;;;;;11.23;6.60;;;8.70;99.90;;;;;;4989903;28;20179;-77
2021/12/15 06:59:37;;;;;;;9.77;6.53;;;8.90;99.90;;;;;;5001740;28;20186;-77
2021/12/15 07:02:03;;;;;;;11.55;7.90;;;9.00;99.90;;;;;;4997590;28;20434;-79
2021/12/15 07:04:29;;;;;;;11.40;7.30;;;8.90;99.90;;;;;;5031566;28;20202;-77
2021/12/15 07:06:55;;;;;;;11.20;7.57;;;9.00;99.90;;;;;;4997427;28;20217;-81
2021/12/15 07:09:22;;;;;;;9.93;6.50;;;8.70;99.90;;;;;;4993744;28;20183;-76
2021/12/15 07:11:50;;;;;;;12.60;7.43;;;8.80;99.90;;;;;;5014512;28;20661;-78
2021/12/15 07:14:20;;;;;;;12.30;7.27;;;8.80;99.90;;;;;;5014450;28;20214;-80
2021/12/15 07:16:49;;;;;;;11.47;7.43;;;8.80;99.90;;;;;;5014933;28;20171;-79
2021/12/15 07:19:20;;;;;;;12.63;7.90;;;8.80;99.90;;;;;;4995793;28;20216;-78
2021/12/15 07:24:39;;;;;;;13.57;7.87;;;8.80;99.90;;;;;;4985274;28;20187;-79
2021/12/15 07:27:08;;;;;;;13.47;8.23;;;9.00;99.90;;;;;;4986032;28;20204;-78
2021/12/15 07:29:35;;;;;;;14.37;8.07;;;8.90;99.90;;;;;;5012809;28;20205;-77
2021/12/15 07:32:03;;;;;;;11.30;8.07;;;8.90;99.90;;;;;;5010781;28;20178;-77
2021/12/15 07:34:29;;;;;;;11.43;7.17;;;8.80;99.90;;;;;;4992043;28;20213;-78
2021/12/15 07:36:58;;;;;;;11.30;7.03;;;8.80;99.90;;;;;;5017183;28;20238;-76
2021/12/15 07:39:24;;;;;;;14.67;8.37;;;8.90;99.90;;;;;;4995873;28;20175;-78
2021/12/15 07:41:53;;;;;;;13.10;8.10;;;8.90;99.90;;;;;;4992515;28;20190;-79
2021/12/15 07:44:21;;;;;;;13.93;8.53;;;8.80;99.90;;;;;;5002215;28;20214;-79
2021/12/15 07:46:51;;;;;;;11.43;7.83;;;8.90;99.90;;;;;;5007957;28;20266;-77
2021/12/15 07:49:20;;;;;;;11.70;7.70;;;9.00;99.90;;;;;;5003272;28;20179;-78
2021/12/15 07:51:47;;;;;;;11.53;8.00;;;8.80;99.90;;;;;;5024028;28;20266;-78
2021/12/15 07:54:14;;;;;;;11.47;7.47;;;8.70;99.90;;;;;;4989118;28;20728;-77
2021/12/15 07:56:42;;;;;;;11.43;7.63;;;8.90;99.90;;;;;;4999510;28;20187;-76
2021/12/15 07:59:08;;;;;;;11.80;7.10;;;8.90;99.90;;;;;;5024683;28;20665;-77
2021/12/15 08:01:34;;;;;;;10.00;6.50;;;9.00;99.90;;;;;;4975634;28;20571;-77
2021/12/15 08:04:00;;;;;;;9.40;6.70;;;8.90;99.90;;;;;;4992540;28;20179;-77
2021/12/15 08:06:27;;;;;;;8.50;6.43;;;9.00;99.90;;;;;;4999965;28;20202;-77
2021/12/15 08:08:54;;;;;;;8.30;5.83;;;8.90;99.90;;;;;;4991767;28;20183;-77
2021/12/15 08:11:20;;;;;;;9.93;6.13;;;8.90;99.90;;;;;;4994792;28;20182;-77
2021/12/15 08:13:46;;;;;;;8.80;6.13;;;8.90;99.90;;;;;;5010787;28;20626;-77
2021/12/15 08:16:14;;;;;;;9.57;6.17;;;8.90;99.90;;;;;;5026365;28;20563;-76
2021/12/15 08:18:41;;;;;;;7.80;5.60;;;8.90;99.90;;;;;;5004152;28;20222;-76
2021/12/15 08:21:09;;;;;;;8.60;6.30;;;8.80;99.90;;;;;;4991909;28;20179;-81
2021/12/15 08:23:36;;;;;;;7.30;5.07;;;8.80;99.90;;;;;;5003139;28;20688;-75
2021/12/15 08:26:04;;;;;;;6.67;5.23;;;8.90;99.90;;;;;;4974167;28;20188;-76
2021/12/15 08:28:30;;;;;;;6.73;5.03;;;8.90;99.90;;;;;;4996835;28;20171;-77
2021/12/15 08:30:59;;;;;;;7.20;4.60;;;8.80;99.90;;;;;;5006874;28;20186;-79
2021/12/15 08:33:27;;;;;;;7.80;5.67;;;8.90;99.90;;;;;;5011204;28;20174;-76
2021/12/15 08:36:01;;;;;;;6.60;4.87;;;8.80;99.90;;;;;;5026830;28;20171;-77
2021/12/15 08:38:29;;;;;;;7.10;5.07;;;8.90;99.90;;;;;;4965308;28;20195;-75
2021/12/15 08:40:55;;;;;;;6.73;5.10;;;9.00;99.90;;;;;;4974137;28;20184;-77
2021/12/15 08:43:24;;;;;;;7.40;4.47;;;9.00;99.90;;;;;;4989514;28;20189;-75
2021/12/15 08:46:01;;;;;;;6.93;4.87;;;8.90;99.90;;;;;;4993677;28;20188;-76
2021/12/15 08:48:27;;;;;;;6.23;4.70;;;9.10;99.90;;;;;;4981085;28;20277;-77
2021/12/15 08:50:54;;;;;;;5.87;4.33;;;8.90;99.90;;;;;;4995484;28;20589;-75
2021/12/15 08:53:20;;;;;;;5.80;3.93;;;9.10;99.90;;;;;;4996242;28;20171;-76
2021/12/15 08:55:48;;;;;;;5.80;4.27;;;9.00;99.90;;;;;;5010367;28;20177;-76
2021/12/15 08:58:17;;;;;;;5.30;4.10;;;8.60;99.90;;;;;;5007662;28;20205;-77
2021/12/15 09:00:47;;;;;;;6.40;4.13;;;8.70;99.90;;;;;;5011393;28;20183;-79
2021/12/15 09:03:15;;;;;;;4.50;3.47;;;8.90;99.90;;;;;;4993579;28;20186;-77
2021/12/15 09:05:43;;;;;;;6.37;3.93;;;8.90;99.90;;;;;;5011789;28;20181;-77
2021/12/15 09:08:10;;;;;;;4.70;3.63;;;8.80;99.90;;;;;;4987997;28;20210;-77
2021/12/15 09:10:39;;;;;;;5.43;3.53;;;8.90;99.90;;;;;;4982931;28;20298;-78
2021/12/15 09:13:05;;;;;;;4.40;3.27;;;8.80;99.90;;;;;;5010485;28;20567;-76
2021/12/15 09:15:32;;;;;;;5.70;3.60;;;8.90;99.90;;;;;;4961696;28;20222;-77
2021/12/15 09:17:58;;;;;;;5.23;3.77;;;9.00;99.90;;;;;;4991653;28;20619;-80
2021/12/15 09:20:27;;;;;;;5.27;3.73;;;9.00;99.90;;;;;;4977691;28;20202;-78
2021/12/15 09:22:54;;;;;;;5.10;3.53;;;9.10;99.90;;;;;;4975171;28;20211;-77
2021/12/15 09:25:20;;;;;;;4.17;3.30;;;9.00;99.90;;;;;;4991245;28;20183;-78
2021/12/15 09:27:47;;;;;;;4.73;3.17;;;9.00;99.90;;;;;;4991488;28;20266;-78
2021/12/15 09:30:18;;;;;;;4.33;3.20;;;9.10;99.90;;;;;;4992587;28;20183;-77
2021/12/15 09:32:45;;;;;;;5.93;3.50;;;9.10;99.90;;;;;;5020813;28;20270;-78
2021/12/15 09:35:14;;;;;;;4.80;3.23;;;9.00;99.90;;;;;;4988051;28;20599;-79
2021/12/15 09:37:40;;;;;;;7.07;3.90;;;9.00;99.90;;;;;;5011975;28;20297;-77
2021/12/15 09:40:07;;;;;;;5.30;3.30;;;9.00;99.90;;;;;;4999806;28;20178;-75
2021/12/15 09:42:37;;;;;;;4.73;3.70;;;9.00;99.90;;;;;;4992444;28;20186;-75
2021/12/15 09:45:40;;;;;;;6.30;3.23;;;8.90;99.90;;;;;;5011488;28;20247;-76
2021/12/15 10:17:56;;;;;;;4.63;3.60;;;9.00;99.90;;;;;;5001068;28;20202;-75
2021/12/15 10:20:25;;;;;;;7.53;5.00;;;8.90;99.90;;;;;;4994470;28;20667;-78
2021/12/15 10:22:59;;;;;;;3.87;3.40;;;9.00;99.90;;;;;;4994388;28;20197;-75
2021/12/15 10:25:29;;;;;;;3.60;3.03;;;9.00;99.90;;;;;;4997981;28;20435;-76
2021/12/15 10:28:19;;;;;;;3.87;3.10;;;9.00;99.90;;;;;;4993730;28;20597;-77
2021/12/15 10:31:00;;;;;;;3.60;3.20;;;8.90;99.90;;;;;;4989674;28;20183;-77
2021/12/15 10:33:28;;;;;;;4.90;3.60;;;8.80;99.90;;;;;;4993958;28;20234;-77
2021/12/15 10:36:08;;;;;;;6.50;3.47;;;9.00;99.90;;;;;;5004929;28;20182;-76
2021/12/15 10:38:46;;;;;;;8.13;3.90;;;9.00;99.90;;;;;;5001503;28;20286;-78
2021/12/15 10:41:25;;;;;;;5.00;3.53;;;9.00;99.90;;;;;;5022249;28;20179;-76
2021/12/15 10:43:54;;;;;;;4.97;3.73;;;8.90;99.90;;;;;;5009117;28;20182;-78
2021/12/15 10:46:22;;;;;;;6.40;4.60;;;9.00;99.90;;;;;;5011675;28;20170;-76
2021/12/15 10:48:56;;;;;;;4.70;3.57;;;8.90;99.90;;;;;;4976940;28;20661;-75
2021/12/15 10:51:34;;;;;;;5.27;3.97;;;8.90;99.90;;;;;;5009334;28;20254;-75
2021/12/15 10:54:07;;;;;;;6.97;4.17;;;9.00;99.90;;;;;;5011954;28;20332;-77
2021/12/15 10:56:37;;;;;;;7.73;4.67;;;9.00;99.90;;;;;;5000650;28;20171;-78
2021/12/15 10:59:10;;;;;;;5.40;4.10;;;9.10;99.90;;;;;;5019218;28;20190;-78
2021/12/15 11:01:52;;;;;;;5.43;4.07;;;9.00;99.90;;;;;;5001034;28;20316;-78
2021/12/15 11:04:41;;;;;;;5.60;4.00;;;9.00;99.90;;;;;;5009072;28;20947;-77
2021/12/15 11:07:12;;;;;;;4.73;3.27;;;9.00;99.90;;;;;;4993138;28;20723;-78
2021/12/15 11:09:47;;;;;;;4.60;3.50;;;8.70;99.90;;;;;;5000074;28;20170;-76
2021/12/15 11:12:15;;;;;;;5.60;3.37;;;8.80;99.90;;;;;;5010707;28;20217;-77
2021/12/15 11:14:45;;;;;;;4.37;3.33;;;8.80;99.90;;;;;;5007913;28;20959;-77
2021/12/15 11:17:19;;;;;;;5.73;4.00;;;8.90;99.90;;;;;;4995951;28;20210;-77
2021/12/15 11:20:28;;;;;;;5.30;3.93;;;9.00;99.90;;;;;;5002881;28;20189;-76
2021/12/15 11:22:54;;;;;;;5.57;4.23;;;8.90;99.90;;;;;;5009121;28;20167;-78
2021/12/15 11:25:31;;;;;;;3.90;3.17;;;8.90;99.90;;;;;;5001444;28;20226;-76
2021/12/15 11:28:02;;;;;;;4.47;3.30;;;9.00;99.90;;;;;;4989715;28;20201;-77
2021/12/15 11:30:38;;;;;;;5.33;4.03;;;8.90;99.90;;;;;;5007598;28;20713;-77
2021/12/15 11:33:30;;;;;;;5.17;3.60;;;9.00;99.90;;;;;;4994192;28;20236;-77
2021/12/15 11:36:01;;;;;;;4.50;3.77;;;9.10;99.90;;;;;;4986724;28;20293;-74
2021/12/15 11:38:31;;;;;;;5.47;4.03;;;9.00;99.90;;;;;;4998304;28;20257;-75
2021/12/15 11:41:08;;;;;;;5.60;4.30;;;9.10;99.90;;;;;;4993156;28;20174;-79
2021/12/15 11:43:44;;;;;;;5.67;3.97;;;9.00;99.90;;;;;;5001384;28;20659;-75
2021/12/15 11:46:15;;;;;;;4.20;3.47;;;9.10;99.90;;;;;;5003591;28;20183;-77
2021/12/15 11:48:41;;;;;;;6.13;4.20;;;8.90;99.90;;;;;;5019543;28;20189;-75
2021/12/15 11:51:08;;;;;;;6.03;4.07;;;9.00;99.90;;;;;;4977758;28;20279;-75
2021/12/15 11:53:52;;;;;;;4.20;3.40;;;9.10;99.90;;;;;;5006661;28;20179;-76
2021/12/15 11:56:20;;;;;;;4.67;3.90;;;9.00;99.90;;;;;;4978977;28;20223;-76
2021/12/15 11:58:48;;;;;;;4.23;3.30;;;9.10;99.90;;;;;;5018708;28;20700;-76
2021/12/15 12:01:46;;;;;;;4.63;3.83;;;9.10;99.90;;;;;;4995143;28;20178;-78
2021/12/15 12:04:38;;;;;;;4.17;3.40;;;9.40;99.90;;;;;;5001155;28;20174;-79
2021/12/15 12:07:10;;;;;;;4.07;3.67;;;9.60;99.90;;;;;;5012786;28;20182;-76
2021/12/15 12:09:39;;;;;;;7.20;5.80;;;9.60;99.90;;;;;;4994662;28;20461;-76
2021/12/15 12:12:06;;;;;;;4.57;3.80;;;9.60;99.90;;;;;;4992304;28;20229;-76
2021/12/15 12:14:48;;;;;;;5.37;4.07;;;9.70;99.90;;;;;;4991325;28;20285;-76
2021/12/15 12:17:26;;;;;;;5.03;3.87;;;9.90;99.90;;;;;;5010045;28;20236;-76
2021/12/15 12:19:57;;;;;;;6.13;4.23;;;9.90;99.90;;;;;;4998378;28;21191;-75
2021/12/15 12:22:29;;;;;;;4.43;3.67;;;9.80;99.90;;;;;;5005224;28;20183;-76
2021/12/15 12:24:57;;;;;;;4.13;3.07;;;10.00;99.90;;;;;;5001168;28;20182;-75
2021/12/15 12:27:26;;;;;;;6.27;3.80;;;10.00;99.90;;;;;;4995135;28;20574;-76
2021/12/15 12:29:54;;;;;;;4.80;3.47;;;10.10;99.90;;;;;;5007072;28;20180;-73
2021/12/15 12:32:20;;;;;;;4.90;3.87;;;10.10;99.90;;;;;;4985428;28;21081;-78
2021/12/15 12:34:47;;;;;;;4.70;3.87;;;10.00;99.90;;;;;;5020419;28;20207;-75
2021/12/15 12:37:15;;;;;;;4.50;3.60;;;9.90;99.90;;;;;;5006475;28;20654;-77
2021/12/15 12:39:43;;;;;;;4.47;3.70;;;10.00;99.90;;;;;;5006619;28;20274;-75
2021/12/15 12:42:26;;;;;;;5.13;4.10;;;10.00;99.90;;;;;;5006954;28;20435;-77
2021/12/15 12:45:05;;;;;;;4.90;3.70;;;9.80;99.90;;;;;;4976958;28;20462;-78
2021/12/15 12:47:39;;;;;;;4.77;3.93;;;9.50;99.90;;;;;;4998441;28;20179;-75
2021/12/15 12:57:54;;;;;;;4.67;3.40;;;9.50;99.90;;;;;;4991215;28;20187;-76
2021/12/15 13:01:12;;;;;;;2.93;2.47;;;9.00;99.90;;;;;;4995062;28;20277;-75
2021/12/15 13:03:46;;;;;;;3.00;2.70;;;9.20;99.90;;;;;;5022222;28;20181;-78
2021/12/15 13:06:34;;;;;;;3.40;2.90;;;9.20;99.90;;;;;;4985588;28;20189;-75
2021/12/15 13:09:03;;;;;;;5.67;3.37;;;9.10;99.90;;;;;;4990686;28;20187;-77
2021/12/15 13:11:35;;;;;;;4.07;3.50;;;9.20;99.90;;;;;;5009241;28;20214;-76
2021/12/15 13:14:12;;;;;;;3.97;3.00;;;9.10;99.90;;;;;;5021512;28;20290;-76
2021/12/15 13:16:52;;;;;;;4.20;3.17;;;9.00;99.90;;;;;;5011323;28;20183;-75
2021/12/15 13:19:33;;;;;;;4.00;3.03;;;8.60;99.90;;;;;;5020058;28;20203;-75
2021/12/15 13:30:54;;;;;;;3.93;2.80;;;8.90;99.90;;;;;;5018361;28;20553;-76
2021/12/15 13:33:33;;;;;;;3.60;2.57;;;9.00;99.90;;;;;;5006378;28;20174;-78
2021/12/15 13:36:14;;;;;;;2.80;2.50;;;9.10;99.90;;;;;;4995353;28;20174;-75
2021/12/15 13:38:54;;;;;;;2.57;2.37;;;9.00;99.90;;;;;;5002049;28;20226;-78
2021/12/15 13:44:26;;;;;;;2.50;2.30;;;8.90;99.90;;;;;;4999538;28;20193;-78
2021/12/15 13:46:56;;;;;;;3.00;2.70;;;9.10;99.90;;;;;;5005820;28;20285;-78
2021/12/15 13:49:28;;;;;;;3.30;2.97;;;9.00;99.90;;;;;;5012950;28;20536;-75
2021/12/15 13:52:16;;;;;;;3.90;3.08;;;8.90;99.90;;;;;;5015892;28;20424;-76
2021/12/15 13:54:41;;;;;;;3.17;2.53;;;9.00;99.90;;;;;;4992102;28;20198;-77
2021/12/15 13:57:13;;;;;;;5.37;3.03;;;9.00;99.90;;;;;;5009231;28;20328;-77
2021/12/15 13:59:44;;;;;;;3.43;2.77;;;8.90;99.90;;;;;;5009208;28;20313;-76
2021/12/15 14:02:18;;;;;;;3.93;2.83;;;9.00;99.90;;;;;;5006819;28;20181;-77
2021/12/15 14:04:57;;;;;;;3.40;2.70;;;8.90;99.90;;;;;;5006000;28;20182;-76
2021/12/15 14:07:44;;;;;;;3.47;2.73;;;8.90;99.90;;;;;;4976244;28;20182;-78
2021/12/15 14:10:10;;;;;;;4.17;3.20;;;8.90;99.90;;;;;;5017496;28;20195;-77
2021/12/15 14:12:45;;;;;;;2.97;2.60;;;8.90;99.90;;;;;;4994022;28;20583;-76
2021/12/15 14:15:26;;;;;;;3.40;2.80;;;8.90;99.90;;;;;;4991710;28;20216;-76
2021/12/15 14:18:20;;;;;;;3.07;2.57;;;8.90;99.90;;;;;;4990390;28;20194;-76
2021/12/15 14:20:54;;;;;;;6.67;4.20;;;8.80;99.90;;;;;;4986152;28;20186;-76
2021/12/15 14:23:24;;;;;;;4.07;3.30;;;8.90;99.90;;;;;;4963128;28;20225;-75
2021/12/15 14:25:52;;;;;;;5.70;3.50;;;8.90;99.90;;;;;;5004352;28;20266;-76
2021/12/15 14:28:38;;;;;;;4.73;3.27;;;8.90;99.90;;;;;;4998642;28;20656;-76
2021/12/15 14:31:43;;;;;;;3.30;2.80;;;8.90;99.90;;;;;;5025052;28;20194;-78
2021/12/15 14:34:16;;;;;;;4.43;3.00;;;8.80;99.90;;;;;;4969136;28;20179;-78
2021/12/15 14:36:46;;;;;;;3.87;2.57;;;8.90;99.90;;;;;;4971023;28;20290;-76
2021/12/15 14:39:16;;;;;;;4.13;2.80;;;8.90;99.90;;;;;;4992169;28;20234;-78
2021/12/15 14:41:45;;;;;;;9.47;4.73;;;9.00;99.90;;;;;;5011546;28;20253;-75